createdAt,value
2022-07-28T00:01:10.763Z,100485.66
2022-07-28T00:03:37.694Z,100480.00
2022-07-28T00:06:04.663Z,100477.91
2022-07-28T00:08:31.827Z,100479.09
2022-07-28T00:10:58.829Z,100485.38
2022-07-28T00:13:25.772Z,100483.94
2022-07-28T00:15:52.786Z,100479.63
2022-07-28T00:18:19.783Z,100482.53
2022-07-28T00:20:46.759Z,100477.41
2022-07-28T00:23:13.760Z,100479.19
2022-07-28T00:25:40.757Z,100484.91
2022-07-28T00:28:07.699Z,100477.09
2022-07-28T00:30:34.772Z,100482.50
2022-07-28T00:33:01.960Z,100483.25
2022-07-28T00:35:31.965Z,100479.06
2022-07-28T00:38:01.022Z,100484.84
2022-07-28T00:40:48.452Z,100489.34
2022-07-28T00:43:15.911Z,100484.97
2022-07-28T00:45:43.315Z,100479.03
2022-07-28T00:48:10.402Z,100479.38
2022-07-28T00:50:40.450Z,100465.19
2022-07-28T00:53:08.860Z,100474.81
2022-07-28T00:56:06.332Z,100478.38
2022-07-28T00:58:27.789Z,100477.16
2022-07-28T01:00:55.909Z,100470.00
2022-07-28T01:03:24.726Z,100470.19
2022-07-28T01:06:31.683Z,100468.28
2022-07-28T01:09:24.013Z,100460.03
2022-07-28T01:12:19.737Z,100468.09
2022-07-28T01:15:08.133Z,100460.56
2022-07-28T01:18:02.521Z,100459.53
2022-07-28T01:20:40.120Z,100453.94
2022-07-28T01:23:32.930Z,100452.91
2022-07-28T01:26:51.355Z,100448.88
2022-07-28T01:30:11.542Z,100442.88
2022-07-28T01:32:52.264Z,100444.06
2022-07-28T01:35:28.834Z,100443.47
2022-07-28T01:38:02.113Z,100440.53
2022-07-28T01:40:34.101Z,100441.41
2022-07-28T01:43:08.412Z,100445.63
2022-07-28T01:45:38.312Z,100447.16
2022-07-28T01:48:06.962Z,100440.19
2022-07-28T01:50:35.077Z,100443.78
2022-07-28T01:53:03.045Z,100445.94
2022-07-28T01:55:30.984Z,100442.69
2022-07-28T01:57:59.328Z,100433.25
2022-07-28T02:00:28.035Z,100441.41
2022-07-28T02:02:57.417Z,100438.50
2022-07-28T02:05:26.024Z,100430.50
2022-07-28T02:07:55.516Z,100427.13
2022-07-28T02:10:23.712Z,100422.31
2022-07-28T02:12:53.006Z,100424.47
2022-07-28T02:15:22.234Z,100416.66
2022-07-28T02:17:51.388Z,100425.28
2022-07-28T02:20:19.776Z,100425.69
2022-07-28T02:22:51.704Z,100409.19
2022-07-28T02:25:20.963Z,100412.69
2022-07-28T02:27:58.373Z,100412.63
2022-07-28T02:30:37.436Z,100405.41
2022-07-28T02:33:13.126Z,100415.72
2022-07-28T02:36:00.772Z,100408.41
2022-07-28T02:38:39.733Z,100410.91
2022-07-28T02:41:27.292Z,100404.56
2022-07-28T02:43:59.659Z,100399.66
2022-07-28T02:46:38.288Z,100401.75
2022-07-28T02:49:30.462Z,100400.41
2022-07-28T02:52:00.198Z,100403.25
2022-07-28T02:54:29.931Z,100405.66
2022-07-28T02:57:00.382Z,100401.72
2022-07-28T02:59:29.188Z,100394.84
2022-07-28T03:01:57.466Z,100402.06
2022-07-28T03:04:44.095Z,100401.38
2022-07-28T03:07:11.390Z,100399.81
2022-07-28T03:09:45.757Z,100406.19
2022-07-28T03:12:13.389Z,100418.84
2022-07-28T03:14:41.618Z,100413.53
2022-07-28T03:17:09.215Z,100412.88
2022-07-28T03:19:36.893Z,100411.81
2022-07-28T03:22:04.801Z,100414.94
2022-07-28T03:24:37.513Z,100416.06
2022-07-28T03:27:31.051Z,100411.41
2022-07-28T03:30:08.522Z,100421.09
2022-07-28T03:32:40.967Z,100418.59
2022-07-28T03:35:09.008Z,100418.44
2022-07-28T03:38:11.466Z,100416.47
2022-07-28T03:40:40.005Z,100417.41
2022-07-28T03:43:18.518Z,100413.19
2022-07-28T03:45:47.794Z,100420.25
2022-07-28T03:48:15.157Z,100418.63
2022-07-28T03:50:42.574Z,100413.56
2022-07-28T03:53:36.106Z,100407.06
2022-07-28T03:56:03.380Z,100409.13
2022-07-28T03:58:31.095Z,100414.75
2022-07-28T04:00:58.709Z,100417.28
2022-07-28T04:03:36.465Z,100415.56
2022-07-28T04:06:15.517Z,100414.00
2022-07-28T04:08:44.553Z,100414.00
2022-07-28T04:11:11.615Z,100410.56
2022-07-28T04:13:38.703Z,100406.78
2022-07-28T04:16:06.983Z,100404.63
2022-07-28T04:18:35.081Z,100407.13
2022-07-28T04:21:02.390Z,100401.50
2022-07-28T04:23:29.422Z,100411.44
2022-07-28T04:25:56.477Z,100413.94
2022-07-28T04:28:24.254Z,100413.16
2022-07-28T04:30:51.356Z,100412.50
2022-07-28T04:33:19.448Z,100414.31
2022-07-28T04:35:47.357Z,100417.28
2022-07-28T04:38:15.018Z,100412.75
2022-07-28T04:40:42.465Z,100414.06
2022-07-28T04:43:10.312Z,100410.03
2022-07-28T04:45:37.375Z,100418.09
2022-07-28T04:48:05.468Z,100422.16
2022-07-28T04:50:32.897Z,100416.75
2022-07-28T04:53:00.224Z,100423.78
2022-07-28T04:55:27.353Z,100421.22
2022-07-28T04:57:54.326Z,100412.47
2022-07-28T05:00:22.955Z,100420.94
2022-07-28T05:02:51.266Z,100407.81
2022-07-28T05:05:18.486Z,100417.59
2022-07-28T05:07:45.490Z,100416.94
2022-07-28T05:10:13.020Z,100412.59
2022-07-28T05:12:40.264Z,100415.28
2022-07-28T05:15:09.470Z,100405.47
2022-07-28T05:17:37.078Z,100408.66
2022-07-28T05:20:06.142Z,100406.34
2022-07-28T05:22:48.034Z,100406.00
2022-07-28T05:25:21.984Z,100409.44
2022-07-28T05:27:49.378Z,100401.50
2022-07-28T05:30:18.317Z,100406.22
2022-07-28T05:32:45.962Z,100412.50
2022-07-28T05:35:13.575Z,100415.50
2022-07-28T05:37:41.052Z,100413.66
2022-07-28T05:40:15.031Z,100414.09
2022-07-28T05:42:43.393Z,100416.19
2022-07-28T05:45:15.678Z,100425.91
2022-07-28T05:47:49.291Z,100420.03
2022-07-28T05:50:18.126Z,100419.66
2022-07-28T05:52:49.029Z,100421.38
2022-07-28T05:55:16.348Z,100413.28
2022-07-28T05:57:43.972Z,100422.72
2022-07-28T06:00:23.070Z,100421.78
2022-07-28T06:02:51.219Z,100428.34
2022-07-28T06:05:20.929Z,100416.91
2022-07-28T06:07:50.243Z,100419.19
2022-07-28T06:10:20.326Z,100413.78
2022-07-28T06:12:51.054Z,100410.84
2022-07-28T06:15:25.689Z,100415.47
2022-07-28T06:17:55.414Z,100414.81
2022-07-28T06:20:24.388Z,100417.00
2022-07-28T06:22:55.479Z,100422.75
2022-07-28T06:25:28.466Z,100426.38
2022-07-28T06:28:02.724Z,100426.38
2022-07-28T06:30:31.776Z,100420.88
2022-07-28T06:32:58.972Z,100419.41
2022-07-28T06:35:26.447Z,100416.84
2022-07-28T06:37:55.070Z,100425.25
2022-07-28T06:40:22.402Z,100417.81
2022-07-28T06:42:50.059Z,100423.81
2022-07-28T06:45:19.600Z,100421.47
2022-07-28T06:47:49.772Z,100428.44
2022-07-28T06:50:24.888Z,100424.38
2022-07-28T06:52:58.913Z,100423.19
2022-07-28T06:55:34.377Z,100422.53
2022-07-28T06:58:03.232Z,100419.56
2022-07-28T07:00:30.668Z,100424.53
2022-07-28T07:02:57.800Z,100418.44
2022-07-28T07:05:25.850Z,100417.06
2022-07-28T07:07:52.855Z,100415.66
2022-07-28T07:10:20.092Z,100420.50
2022-07-28T07:12:47.229Z,100411.72
2022-07-28T07:15:14.275Z,100410.66
2022-07-28T07:17:42.104Z,100409.50
2022-07-28T07:20:10.705Z,100414.97
2022-07-28T07:22:45.997Z,100409.19
2022-07-28T07:25:16.613Z,100405.22
2022-07-28T07:27:44.313Z,100404.03
2022-07-28T07:30:13.211Z,100398.00
2022-07-28T07:32:42.001Z,100394.69
2022-07-28T07:35:09.465Z,100397.31
2022-07-28T07:37:36.488Z,100393.25
2022-07-28T07:40:06.282Z,100392.91
2022-07-28T07:42:33.681Z,100390.81
2022-07-28T07:45:01.009Z,100388.72
2022-07-28T07:47:28.286Z,100390.31
2022-07-28T07:49:55.286Z,100387.91
2022-07-28T07:52:22.286Z,100384.38
2022-07-28T07:54:49.386Z,100384.91
2022-07-28T07:57:16.411Z,100384.72
2022-07-28T07:59:43.557Z,100386.81
2022-07-28T08:02:10.573Z,100386.19
2022-07-28T08:04:38.542Z,100388.66
2022-07-28T08:07:06.719Z,100382.47
2022-07-28T08:09:34.422Z,100381.25
2022-07-28T08:12:01.787Z,100376.91
2022-07-28T08:14:28.967Z,100383.88
2022-07-28T08:16:56.732Z,100376.59
2022-07-28T08:19:23.982Z,100378.28
2022-07-28T08:21:51.515Z,100379.41
2022-07-28T08:24:32.357Z,100373.28
2022-07-28T08:27:00.481Z,100378.75
2022-07-28T08:29:27.616Z,100379.38
2022-07-28T08:31:54.685Z,100370.34
2022-07-28T08:34:32.338Z,100384.03
2022-07-28T08:37:02.696Z,100383.16
2022-07-28T08:39:32.066Z,100372.81
2022-07-28T08:42:25.497Z,100369.63
2022-07-28T08:45:01.375Z,100367.81
2022-07-28T08:47:40.413Z,100373.41
2022-07-28T08:50:14.022Z,100372.88
2022-07-28T08:52:45.505Z,100367.50
2022-07-28T08:55:19.181Z,100369.50
2022-07-28T08:57:47.007Z,100373.16
2022-07-28T09:00:14.701Z,100369.75
2022-07-28T09:02:46.550Z,100360.56
2022-07-28T09:05:23.670Z,100362.13
2022-07-28T09:07:55.493Z,100364.81
2022-07-28T09:10:23.470Z,100362.94
2022-07-28T09:12:50.847Z,100358.03
2022-07-28T09:15:18.012Z,100356.47
2022-07-28T09:17:45.602Z,100360.00
2022-07-28T09:20:13.776Z,100348.59
2022-07-28T09:23:04.696Z,100350.97
2022-07-28T09:25:33.153Z,100339.13
2022-07-28T09:28:20.262Z,100342.03
2022-07-28T09:30:53.969Z,100331.94
2022-07-28T09:33:42.029Z,100340.28
2022-07-28T09:36:16.203Z,100329.13
2022-07-28T09:38:43.548Z,100330.47
2022-07-28T09:41:11.260Z,100320.03
2022-07-28T09:43:44.387Z,100322.28
2022-07-28T09:46:19.978Z,100322.25
2022-07-28T09:48:55.586Z,100324.69
2022-07-28T09:51:35.831Z,100324.47
2022-07-28T09:54:19.934Z,100314.41
2022-07-28T09:56:47.195Z,100310.63
2022-07-28T09:59:16.223Z,100303.53
2022-07-28T10:02:01.650Z,100303.16
2022-07-28T10:04:41.748Z,100309.13
2022-07-28T10:07:15.777Z,100304.31
2022-07-28T10:09:43.649Z,100294.75
2022-07-28T10:12:24.338Z,100293.31
2022-07-28T10:14:55.423Z,100292.06
2022-07-28T10:17:34.353Z,100292.13
2022-07-28T10:20:05.980Z,100281.56
2022-07-28T10:22:42.777Z,100270.84
2022-07-28T10:25:12.692Z,100277.72
2022-07-28T10:27:44.920Z,100265.97
2022-07-28T10:30:13.276Z,100260.09
2022-07-28T10:32:44.511Z,100256.75
2022-07-28T10:35:15.353Z,100261.97
2022-07-28T10:38:12.809Z,100265.16
2022-07-28T10:40:46.876Z,100251.38
2022-07-28T10:43:14.923Z,100256.34
2022-07-28T10:46:04.465Z,100264.59
2022-07-28T10:48:31.283Z,100263.69
2022-07-28T10:50:59.441Z,100253.63
2022-07-28T10:53:46.789Z,100261.19
2022-07-28T10:56:38.686Z,100249.16
2022-07-28T10:59:37.975Z,100253.69
2022-07-28T11:02:05.311Z,100246.34
2022-07-28T11:04:41.495Z,100244.75
2022-07-28T11:07:17.480Z,100253.16
2022-07-28T11:09:47.531Z,100244.13
2022-07-28T11:12:15.479Z,100248.06
2022-07-28T11:14:43.736Z,100250.63
2022-07-28T11:17:13.522Z,100250.31
2022-07-28T11:19:55.679Z,100243.19
2022-07-28T11:22:34.870Z,100240.41
2022-07-28T11:25:19.715Z,100241.34
2022-07-28T11:27:51.488Z,100243.81
2022-07-28T11:30:19.174Z,100225.94
2022-07-28T11:32:53.398Z,100230.34
2022-07-28T11:35:51.966Z,100212.31
2022-07-28T11:38:19.596Z,100222.47
2022-07-28T11:40:57.756Z,100212.66
2022-07-28T11:43:35.526Z,100218.84
2022-07-28T11:46:10.275Z,100207.03
2022-07-28T11:48:41.005Z,100210.69
2022-07-28T11:51:10.234Z,100210.66
2022-07-28T11:53:54.758Z,100204.63
2022-07-28T11:56:32.303Z,100206.63
2022-07-28T11:59:07.767Z,100202.94
2022-07-28T12:01:36.885Z,100197.19
2022-07-28T12:04:12.013Z,100201.41
2022-07-28T12:06:42.990Z,100198.19
2022-07-28T12:09:13.397Z,100188.06
2022-07-28T12:11:42.295Z,100198.09
2022-07-28T12:14:13.246Z,100196.56
2022-07-28T12:16:43.679Z,100196.06
2022-07-28T12:19:15.264Z,100194.72
2022-07-28T12:21:47.665Z,100191.50
2022-07-28T12:24:44.673Z,100199.13
2022-07-28T12:27:13.634Z,100193.69
2022-07-28T12:29:42.679Z,100188.56
2022-07-28T12:32:10.309Z,100175.47
2022-07-28T12:34:40.369Z,100177.19
2022-07-28T12:37:09.940Z,100172.28
2022-07-28T12:39:39.737Z,100175.22
2022-07-28T12:42:08.954Z,100169.69
2022-07-28T12:44:41.919Z,100153.31
2022-07-28T12:47:12.463Z,100151.69
2022-07-28T12:49:44.069Z,100158.72
2022-07-28T12:52:24.921Z,100151.09
2022-07-28T12:54:55.578Z,100155.63
2022-07-28T12:57:50.431Z,100152.69
2022-07-28T13:00:22.933Z,100141.53
2022-07-28T13:02:53.315Z,100150.44
2022-07-28T13:05:54.771Z,100148.56
2022-07-28T13:08:24.512Z,100147.25
2022-07-28T13:10:56.677Z,100143.69
2022-07-28T13:13:24.778Z,100143.78
2022-07-28T13:16:11.930Z,100151.31
2022-07-28T13:18:59.367Z,100131.50
2022-07-28T13:21:59.575Z,100141.38
2022-07-28T13:24:30.705Z,100136.16
2022-07-28T13:26:59.411Z,100130.13
2022-07-28T13:29:26.696Z,100129.09
2022-07-28T13:31:56.718Z,100129.94
2022-07-28T13:34:23.865Z,100130.59
2022-07-28T13:36:52.307Z,100128.47
2022-07-28T13:39:19.321Z,100122.38
2022-07-28T13:41:58.368Z,100118.38
2022-07-28T13:44:29.892Z,100122.94
2022-07-28T13:46:59.233Z,100112.66
2022-07-28T13:49:28.229Z,100118.75
2022-07-28T13:51:55.650Z,100111.78
2022-07-28T13:54:23.587Z,100119.78
2022-07-28T13:57:16.084Z,100109.09
2022-07-28T13:59:43.877Z,100111.34
2022-07-28T14:02:15.400Z,100105.63
2022-07-28T14:04:45.933Z,100104.75
2022-07-28T14:07:20.811Z,100097.28
2022-07-28T14:09:50.583Z,100094.59
2022-07-28T14:12:18.684Z,100092.59
2022-07-28T14:14:48.165Z,100094.84
2022-07-28T14:20:10.905Z,100092.91
2022-07-28T14:22:38.230Z,100085.22
2022-07-28T14:25:05.804Z,100078.03
2022-07-28T14:27:52.306Z,100081.78
2022-07-28T14:30:20.921Z,100075.06
2022-07-28T14:32:49.034Z,100073.47
2022-07-28T14:35:16.628Z,100070.63
2022-07-28T14:38:35.084Z,100071.88
2022-07-28T14:40:31.985Z,100076.03
2022-07-28T14:42:59.932Z,100068.19
2022-07-28T14:45:28.796Z,100073.31
2022-07-28T14:47:56.031Z,100070.13
2022-07-28T14:50:23.948Z,100065.88
2022-07-28T14:52:51.304Z,100067.06
2022-07-28T14:55:18.832Z,100073.75
2022-07-28T14:57:48.825Z,100067.88
2022-07-28T15:00:20.154Z,100069.97
2022-07-28T15:02:47.764Z,100062.97
2022-07-28T15:05:15.113Z,100050.72
2022-07-28T15:07:42.470Z,100062.38
2022-07-28T15:10:10.679Z,100068.28
2022-07-28T15:12:37.912Z,100051.97
2022-07-28T15:15:05.878Z,100063.03
2022-07-28T15:17:33.571Z,100066.88
2022-07-28T15:20:00.686Z,100057.69
2022-07-28T15:22:27.752Z,100052.25
2022-07-28T15:24:54.761Z,100048.63
2022-07-28T15:27:21.838Z,100051.81
2022-07-28T15:29:52.172Z,100054.63
2022-07-28T15:32:26.313Z,100057.22
2022-07-28T15:34:55.842Z,100054.94
2022-07-28T15:37:23.207Z,100046.44
2022-07-28T15:39:50.464Z,100040.75
2022-07-28T15:42:17.571Z,100048.13
2022-07-28T15:44:44.599Z,100035.09
2022-07-28T15:47:11.624Z,100039.09
2022-07-28T15:49:38.686Z,100043.91
2022-07-28T15:52:06.038Z,100038.91
2022-07-28T15:54:33.039Z,100027.56
2022-07-28T15:56:59.991Z,100032.16
2022-07-28T15:59:48.671Z,100029.13
2022-07-28T16:02:17.495Z,100025.44
2022-07-28T16:04:51.549Z,100017.88
2022-07-28T16:07:24.717Z,100023.13
2022-07-28T16:09:55.416Z,100013.69
2022-07-28T16:12:25.281Z,100015.97
2022-07-28T16:14:53.964Z,100019.94
2022-07-28T16:17:22.939Z,100013.22
2022-07-28T16:19:51.226Z,100004.81
2022-07-28T16:22:19.975Z,100005.38
2022-07-28T16:24:47.357Z,100002.72
2022-07-28T16:27:14.804Z,99990.97
2022-07-28T16:29:42.621Z,99990.78
2022-07-28T16:32:10.095Z,99990.25
2022-07-28T16:34:37.334Z,99991.13
2022-07-28T16:37:05.043Z,99982.94
2022-07-28T16:39:34.336Z,99976.84
2022-07-28T16:42:01.760Z,99984.59
2022-07-28T16:44:29.320Z,99977.25
2022-07-28T16:46:56.937Z,99979.16
2022-07-28T16:49:24.605Z,99976.78
2022-07-28T16:51:51.721Z,99970.94
2022-07-28T16:54:19.320Z,99969.25
2022-07-28T16:56:48.185Z,99981.88
2022-07-28T16:59:15.178Z,99982.84
2022-07-28T17:01:46.184Z,99979.19
2022-07-28T17:04:15.618Z,99979.75
2022-07-28T17:06:42.981Z,99995.47
2022-07-28T17:09:10.783Z,100000.41
2022-07-28T17:11:38.027Z,100003.03
2022-07-28T17:14:05.026Z,99988.81
2022-07-28T17:16:32.250Z,99994.00
2022-07-28T17:18:59.608Z,99988.63
2022-07-28T17:21:27.034Z,99996.13
2022-07-28T17:23:54.146Z,99994.91
2022-07-28T17:29:09.702Z,99993.06
2022-07-28T17:31:38.419Z,99995.34
2022-07-28T17:34:05.754Z,99996.56
2022-07-28T17:36:35.283Z,99992.59
2022-07-28T17:39:02.597Z,99992.34
2022-07-28T17:41:30.751Z,99999.97
2022-07-28T17:43:57.816Z,100003.47
2022-07-28T17:46:26.479Z,100005.19
2022-07-28T17:48:54.133Z,100010.00
2022-07-28T17:51:21.566Z,100014.47
2022-07-28T17:53:48.894Z,100013.41
2022-07-28T17:56:17.494Z,100020.13
2022-07-28T17:58:45.881Z,100028.13
2022-07-28T18:01:15.269Z,100024.00
2022-07-28T18:03:58.275Z,100026.31
2022-07-28T18:06:35.904Z,100027.44
2022-07-28T18:09:07.847Z,100026.25
2022-07-28T18:11:55.220Z,100029.97
2022-07-28T18:14:27.166Z,100031.78
2022-07-28T18:16:54.359Z,100021.91
2022-07-28T18:19:21.456Z,100030.13
2022-07-28T18:21:48.755Z,100033.25
2022-07-28T18:24:16.209Z,100032.09
2022-07-28T18:26:43.795Z,100032.47
2022-07-28T18:29:10.819Z,100029.19
2022-07-28T18:31:43.896Z,100030.75
2022-07-28T18:34:14.257Z,100021.09
2022-07-28T18:36:41.622Z,100035.88
2022-07-28T18:39:08.681Z,100035.91
2022-07-28T18:41:47.135Z,100034.72
2022-07-28T18:44:17.448Z,100033.19
2022-07-28T18:46:45.656Z,100020.53
2022-07-28T18:49:12.950Z,100028.19
2022-07-28T18:51:40.135Z,100021.94
2022-07-28T18:54:13.395Z,100017.91
2022-07-28T18:56:40.601Z,100023.34
2022-07-28T18:59:07.549Z,100024.03
2022-07-28T19:01:34.702Z,100023.88
2022-07-28T19:04:01.869Z,100020.13
2022-07-28T19:06:29.382Z,100024.56
2022-07-28T19:08:56.723Z,100019.28
2022-07-28T19:11:23.703Z,100027.03
2022-07-28T19:13:50.866Z,100028.03
2022-07-28T19:16:19.377Z,100032.09
2022-07-28T19:18:46.449Z,100031.19
2022-07-28T19:21:13.819Z,100037.63
2022-07-28T19:23:40.921Z,100036.72
2022-07-28T19:26:11.306Z,100035.03
2022-07-28T19:28:38.423Z,100038.84
2022-07-28T19:31:10.588Z,100042.56
2022-07-28T19:33:42.817Z,100052.03
2022-07-28T19:36:13.792Z,100053.97
2022-07-28T19:38:52.697Z,100056.34
2022-07-28T19:41:22.629Z,100054.22
2022-07-28T19:43:49.811Z,100067.31
2022-07-28T19:46:18.815Z,100070.59
2022-07-28T19:48:45.914Z,100068.88
2022-07-28T19:51:12.959Z,100077.91
2022-07-28T19:53:40.094Z,100078.16
2022-07-28T19:56:09.215Z,100079.56
2022-07-28T19:58:36.948Z,100080.44
2022-07-28T20:01:05.638Z,100083.91
2022-07-28T20:04:03.112Z,100092.94
2022-07-28T20:06:25.009Z,100097.34
2022-07-28T20:08:53.941Z,100093.41
2022-07-28T20:11:21.324Z,100104.56
2022-07-28T20:13:49.430Z,100103.22
2022-07-28T20:16:17.681Z,100111.38
2022-07-28T20:18:44.820Z,100109.06
2022-07-28T20:21:11.974Z,100127.13
2022-07-28T20:23:40.848Z,100122.03
2022-07-28T20:26:10.088Z,100122.63
2022-07-28T20:28:37.869Z,100121.22
2022-07-28T20:31:06.187Z,100133.84
2022-07-28T20:33:33.274Z,100132.84
2022-07-28T20:36:00.258Z,100137.19
2022-07-28T20:38:27.451Z,100139.47
2022-07-28T20:40:54.506Z,100140.50
2022-07-28T20:43:21.568Z,100142.09
2022-07-28T20:45:48.637Z,100146.19
2022-07-28T20:48:16.260Z,100145.31
2022-07-28T20:50:43.311Z,100156.53
2022-07-28T20:53:10.654Z,100151.72
2022-07-28T20:55:37.907Z,100147.91
2022-07-28T20:58:06.117Z,100154.84
2022-07-28T21:00:33.376Z,100160.22
2022-07-28T21:03:00.524Z,100159.41
2022-07-28T21:05:35.475Z,100152.56
2022-07-28T21:08:06.252Z,100151.13
2022-07-28T21:10:36.862Z,100166.25
2022-07-28T21:13:03.965Z,100172.56
2022-07-28T21:15:31.275Z,100167.19
2022-07-28T21:17:59.271Z,100172.81
2022-07-28T21:20:26.471Z,100171.09
2022-07-28T21:22:53.736Z,100170.16
2022-07-28T21:25:21.436Z,100161.47
2022-07-28T21:28:07.477Z,100161.22
2022-07-28T21:30:34.532Z,100168.69
2022-07-28T21:33:01.543Z,100163.59
2022-07-28T21:35:29.467Z,100169.50
2022-07-28T21:37:56.520Z,100178.97
2022-07-28T21:40:24.107Z,100201.75
2022-07-28T21:42:52.002Z,100231.00
2022-07-28T21:45:19.366Z,100207.25
2022-07-28T21:47:46.359Z,100210.22
2022-07-28T21:50:14.061Z,100222.00
2022-07-28T21:52:41.210Z,100217.66
2022-07-28T21:55:10.082Z,100215.50
2022-07-28T21:57:37.159Z,100220.22
2022-07-28T22:00:09.129Z,100223.19
2022-07-28T22:02:36.649Z,100223.63
2022-07-28T22:05:04.754Z,100230.97
2022-07-28T22:07:32.103Z,100233.91
2022-07-28T22:09:59.072Z,100223.28
2022-07-28T22:12:26.059Z,100227.19
2022-07-28T22:14:53.018Z,100224.94
2022-07-28T22:17:19.982Z,100228.19
2022-07-28T22:19:47.002Z,100233.03
2022-07-28T22:22:14.072Z,100229.28
2022-07-28T22:24:41.011Z,100227.38
2022-07-28T22:27:08.002Z,100234.94
2022-07-28T22:29:34.978Z,100238.47
2022-07-28T22:32:02.143Z,100238.34
2022-07-28T22:34:29.718Z,100242.56
2022-07-28T22:36:56.857Z,100248.03
2022-07-28T22:39:24.321Z,100238.22
2022-07-28T22:41:51.251Z,100239.13
2022-07-28T22:44:18.696Z,100237.75
2022-07-28T22:46:46.649Z,100233.03
2022-07-28T22:49:13.788Z,100231.94
2022-07-28T22:51:40.908Z,100233.56
2022-07-28T22:54:16.111Z,100234.91
2022-07-28T22:56:43.667Z,100240.06
2022-07-28T22:59:11.284Z,100242.38
2022-07-28T23:01:41.436Z,100244.47
2022-07-28T23:04:08.393Z,100241.31
2022-07-28T23:06:35.594Z,100242.66
2022-07-28T23:09:02.796Z,100238.59
2022-07-28T23:11:29.789Z,100236.75
2022-07-28T23:13:56.769Z,100236.13
2022-07-28T23:16:23.838Z,100227.44
2022-07-28T23:18:50.890Z,100226.97
2022-07-28T23:21:17.870Z,100223.03
2022-07-28T23:23:44.846Z,100221.72
2022-07-28T23:26:12.294Z,100225.13
2022-07-28T23:28:39.297Z,100219.50
2022-07-28T23:31:06.456Z,100214.13
2022-07-28T23:33:56.405Z,100213.53
2022-07-28T23:36:26.808Z,100223.91
2022-07-28T23:38:59.170Z,100219.53
2022-07-28T23:41:27.121Z,100223.72
2022-07-28T23:43:54.578Z,100210.94
2022-07-28T23:46:21.806Z,100209.81
2022-07-28T23:48:49.537Z,100210.94
2022-07-28T23:51:16.598Z,100209.97
2022-07-28T23:53:44.917Z,100212.31
2022-07-28T23:56:13.502Z,100211.47
2022-07-28T23:58:41.089Z,100196.97
